Time;durP1;ratioP1;P1;durP2;ratioP2;P2;SDS_P1;SDS_P2;PMS_P1;PMS_P2;Temp;Humidity;BMP_temperature;BMP_pressure;BME280_temperature;BME280_humidity;BME280_pressure;Samples;Min_cycle;Max_cycle;Signal;HPM_P1;HPM_P2
2023/03/09 00:00:35;;;;;;;2.33;0.82;;;;;;;;;;5054815;28;20044;-58
2023/03/09 00:03:01;;;;;;;1.35;0.60;;;;;;;;;;5055216;28;20509;-59
2023/03/09 00:05:27;;;;;;;5.32;1.35;;;;;;;;;;5054781;28;20036;-58
2023/03/09 00:07:54;;;;;;;2.72;1.15;;;;;;;;;;5054350;28;20037;-59
2023/03/09 00:10:20;;;;;;;2.28;1.15;;;;;;;;;;5055524;28;20033;-59
2023/03/09 00:12:46;;;;;;;2.08;0.88;;;;;;;;;;5054890;28;20055;-59
2023/03/09 00:15:12;;;;;;;2.63;1.10;;;;;;;;;;5055051;28;20362;-59
2023/03/09 00:17:38;;;;;;;2.28;1.10;;;;;;;;;;5055294;28;20029;-59
2023/03/09 00:20:17;;;;;;;4.57;0.95;;;;;;;;;;5055217;28;20040;-59
2023/03/09 00:22:43;;;;;;;2.10;0.63;;;;;;;;;;5055131;28;20082;-58
2023/03/09 00:25:13;;;;;;;1.55;0.50;;;;;;;;;;5054820;28;20029;-59
2023/03/09 00:27:39;;;;;;;1.30;0.80;;;;;;;;;;5054514;28;20104;-59
2023/03/09 00:30:05;;;;;;;1.98;0.75;;;;;;;;;;5054785;28;20043;-59
2023/03/09 00:32:31;;;;;;;1.95;1.10;;;;;;;;;;5054088;28;20491;-58
2023/03/09 00:34:57;;;;;;;1.88;0.75;;;;;;;;;;5055062;28;20025;-58
2023/03/09 00:37:23;;;;;;;0.95;0.47;;;;;;;;;;5055099;28;20146;-58
2023/03/09 00:39:49;;;;;;;6.95;0.88;;;;;;;;;;5054618;28;20032;-59
2023/03/09 00:42:15;;;;;;;0.80;0.40;;;;;;;;;;5054257;28;20025;-59
2023/03/09 00:44:41;;;;;;;1.25;0.35;;;;;;;;;;5054501;28;20036;-58
2023/03/09 00:47:07;;;;;;;0.85;0.32;;;;;;;;;;5054168;28;20037;-58
2023/03/09 00:49:33;;;;;;;1.67;0.55;;;;;;;;;;5053763;28;20127;-59
2023/03/09 00:51:59;;;;;;;0.95;0.40;;;;;;;;;;5054107;28;20021;-58
2023/03/09 00:54:25;;;;;;;1.33;0.43;;;;;;;;;;5054652;28;20511;-58
2023/03/09 00:56:51;;;;;;;0.30;0.15;;;;;;;;;;5054727;28;20453;-58
2023/03/09 00:59:17;;;;;;;0.32;0.10;;;;;;;;;;5054512;28;20123;-58
2023/03/09 01:01:43;;;;;;;0.00;0.00;;;;;;;;;;5054776;28;20498;-58
2023/03/09 01:04:09;;;;;;;0.70;0.22;;;;;;;;;;5054778;28;20059;-59
2023/03/09 01:06:35;;;;;;;0.35;0.20;;;;;;;;;;5054429;28;20055;-58
2023/03/09 01:09:01;;;;;;;0.73;0.35;;;;;;;;;;5054350;28;20028;-59
2023/03/09 01:11:27;;;;;;;1.15;0.20;;;;;;;;;;5054090;28;20021;-59
2023/03/09 01:13:53;;;;;;;0.60;0.50;;;;;;;;;;5053840;28;20053;-59
2023/03/09 01:16:19;;;;;;;1.38;0.22;;;;;;;;;;5054604;28;20036;-59
2023/03/09 01:18:45;;;;;;;0.22;0.03;;;;;;;;;;5053739;28;20068;-58
2023/03/09 01:21:11;;;;;;;0.73;0.10;;;;;;;;;;5053783;28;20083;-57
2023/03/09 01:23:38;;;;;;;0.00;0.00;;;;;;;;;;5054292;28;20442;-56
2023/03/09 01:26:04;;;;;;;0.22;0.10;;;;;;;;;;5053813;28;20021;-55
2023/03/09 01:28:30;;;;;;;0.13;0.10;;;;;;;;;;5053662;28;20374;-57
2023/03/09 01:30:56;;;;;;;0.00;0.00;;;;;;;;;;5053629;28;20029;-56
2023/03/09 01:33:22;;;;;;;0.30;0.08;;;;;;;;;;5053648;28;20029;-58
2023/03/09 01:35:48;;;;;;;0.08;0.00;;;;;;;;;;5054017;28;20033;-58
2023/03/09 01:38:14;;;;;;;0.00;0.00;;;;;;;;;;5053587;28;20035;-57
2023/03/09 01:40:44;;;;;;;0.10;0.03;;;;;;;;;;5053231;28;20087;-58
2023/03/09 01:43:29;;;;;;;0.00;0.00;;;;;;;;;;5054010;28;20028;-58
2023/03/09 01:46:13;;;;;;;0.40;0.20;;;;;;;;;;5054072;28;20466;-55
2023/03/09 01:48:39;;;;;;;1.02;0.20;;;;;;;;;;5053432;28;20044;-55
2023/03/09 01:51:05;;;;;;;0.68;0.20;;;;;;;;;;5053436;28;20470;-57
2023/03/09 01:53:31;;;;;;;0.65;0.00;;;;;;;;;;5053420;28;20057;-56
2023/03/09 01:55:57;;;;;;;0.90;0.10;;;;;;;;;;5053720;28;20451;-58
2023/03/09 01:58:26;;;;;;;0.30;0.13;;;;;;;;;;5053308;28;20033;-58
2023/03/09 02:00:53;;;;;;;0.38;0.20;;;;;;;;;;5053987;28;20029;-58
2023/03/09 02:03:22;;;;;;;0.00;0.00;;;;;;;;;;5057585;28;20021;-58
2023/03/09 02:06:09;;;;;;;0.05;0.00;;;;;;;;;;5057312;28;20463;-58
2023/03/09 02:08:36;;;;;;;0.25;0.10;;;;;;;;;;5057503;28;20108;-59
2023/03/09 02:11:07;;;;;;;0.25;0.20;;;;;;;;;;5055963;28;20079;-56
2023/03/09 02:13:35;;;;;;;0.10;0.10;;;;;;;;;;5057198;28;20045;-59
2023/03/09 02:16:01;;;;;;;0.00;0.00;;;;;;;;;;5057383;28;20467;-57
2023/03/09 02:18:28;;;;;;;0.28;0.13;;;;;;;;;;5057660;28;20386;-56
2023/03/09 02:21:23;;;;;;;0.43;0.20;;;;;;;;;;5057616;28;20138;-59
2023/03/09 02:23:49;;;;;;;0.47;0.20;;;;;;;;;;5052140;28;20057;-57
2023/03/09 02:26:19;;;;;;;0.00;0.00;;;;;;;;;;5055557;28;20032;-57
2023/03/09 02:28:45;;;;;;;0.20;0.13;;;;;;;;;;5057298;28;20114;-59
2023/03/09 02:31:13;;;;;;;0.00;0.00;;;;;;;;;;5057136;28;20449;-58
2023/03/09 02:33:39;;;;;;;0.15;0.00;;;;;;;;;;5057332;28;20345;-57
2023/03/09 02:36:05;;;;;;;0.70;0.10;;;;;;;;;;5057378;28;20054;-58
2023/03/09 02:38:31;;;;;;;0.20;0.10;;;;;;;;;;5056688;28;20033;-58
2023/03/09 02:40:58;;;;;;;0.00;0.00;;;;;;;;;;5056704;28;20098;-58
2023/03/09 02:43:31;;;;;;;1.75;0.30;;;;;;;;;;5056564;28;20025;-55
2023/03/09 02:45:57;;;;;;;0.05;0.00;;;;;;;;;;5057053;28;20059;-57
2023/03/09 02:48:23;;;;;;;0.10;0.03;;;;;;;;;;5056476;28;20021;-58
2023/03/09 02:50:49;;;;;;;0.20;0.03;;;;;;;;;;5056124;28;20043;-58
2023/03/09 02:53:15;;;;;;;0.13;0.03;;;;;;;;;;5056432;28;20532;-59
2023/03/09 02:55:41;;;;;;;0.40;0.20;;;;;;;;;;5056631;28;20136;-56
2023/03/09 02:58:07;;;;;;;0.38;0.20;;;;;;;;;;5056653;28;20108;-58
2023/03/09 03:00:33;;;;;;;0.25;0.10;;;;;;;;;;5056289;28;20505;-58
2023/03/09 03:02:59;;;;;;;0.00;0.00;;;;;;;;;;5056800;28;20036;-54
2023/03/09 03:05:25;;;;;;;0.43;0.40;;;;;;;;;;5057017;28;20036;-58
2023/03/09 03:07:51;;;;;;;0.28;0.13;;;;;;;;;;5056183;28;20072;-55
2023/03/09 03:10:17;;;;;;;0.40;0.10;;;;;;;;;;5056064;28;20071;-57
2023/03/09 03:12:43;;;;;;;1.17;1.02;;;;;;;;;;5055649;28;20041;-58
2023/03/09 03:15:09;;;;;;;3.45;0.20;;;;;;;;;;5055842;28;20032;-57
2023/03/09 03:17:35;;;;;;;0.10;0.00;;;;;;;;;;5055775;28;20374;-58
2023/03/09 03:20:02;;;;;;;0.17;0.10;;;;;;;;;;5056263;28;20128;-56
2023/03/09 03:22:28;;;;;;;0.43;0.22;;;;;;;;;;5055858;28;20419;-58
2023/03/09 03:24:54;;;;;;;0.20;0.10;;;;;;;;;;5056400;28;20108;-58
2023/03/09 03:27:20;;;;;;;0.15;0.05;;;;;;;;;;5056111;28;20087;-58
2023/03/09 03:29:46;;;;;;;0.85;0.40;;;;;;;;;;5055651;28;20021;-58
2023/03/09 03:32:12;;;;;;;0.25;0.10;;;;;;;;;;5056276;28;20032;-58
2023/03/09 03:34:38;;;;;;;0.30;0.20;;;;;;;;;;5055634;28;20033;-59
2023/03/09 03:37:05;;;;;;;0.20;0.10;;;;;;;;;;5055635;28;20355;-59
2023/03/09 03:39:31;;;;;;;0.00;0.00;;;;;;;;;;5055511;28;20079;-58
2023/03/09 03:41:57;;;;;;;0.30;0.10;;;;;;;;;;5056293;28;20398;-57
2023/03/09 03:44:23;;;;;;;0.13;0.10;;;;;;;;;;5055508;28;20029;-59
2023/03/09 03:46:49;;;;;;;0.10;0.10;;;;;;;;;;5056053;28;20367;-58
2023/03/09 03:49:15;;;;;;;1.17;0.10;;;;;;;;;;5055273;28;20035;-57
2023/03/09 03:51:41;;;;;;;0.00;0.00;;;;;;;;;;5055400;28;20435;-58
2023/03/09 03:54:07;;;;;;;0.00;0.00;;;;;;;;;;5054956;28;20048;-58
2023/03/09 03:56:34;;;;;;;0.00;0.00;;;;;;;;;;5055310;28;20032;-58
2023/03/09 03:59:00;;;;;;;0.00;0.00;;;;;;;;;;5055187;28;20029;-58
2023/03/09 04:01:26;;;;;;;0.10;0.10;;;;;;;;;;5055177;28;20048;-58
2023/03/09 04:03:52;;;;;;;0.00;0.00;;;;;;;;;;5054180;28;20036;-56
2023/03/09 04:06:18;;;;;;;0.55;0.25;;;;;;;;;;5055173;28;20052;-58
2023/03/09 04:08:44;;;;;;;1.38;0.40;;;;;;;;;;5054702;28;20027;-56
2023/03/09 04:11:10;;;;;;;2.30;0.52;;;;;;;;;;5054865;28;20033;-58
2023/03/09 04:13:36;;;;;;;0.47;0.20;;;;;;;;;;5055637;28;20052;-56
2023/03/09 04:16:02;;;;;;;1.50;0.70;;;;;;;;;;5054870;28;20074;-58
2023/03/09 04:18:28;;;;;;;3.85;0.52;;;;;;;;;;5055059;28;20029;-58
2023/03/09 04:20:54;;;;;;;0.68;0.50;;;;;;;;;;5055081;28;20033;-59
2023/03/09 04:23:20;;;;;;;0.03;0.03;;;;;;;;;;5054737;28;20021;-58
2023/03/09 04:25:56;;;;;;;1.23;0.43;;;;;;;;;;5054573;28;20402;-58
2023/03/09 04:28:22;;;;;;;4.85;0.75;;;;;;;;;;5054666;28;20029;-57
2023/03/09 04:30:48;;;;;;;1.60;0.28;;;;;;;;;;5054486;28;20052;-57
2023/03/09 04:33:14;;;;;;;1.20;0.47;;;;;;;;;;5054593;28;20470;-57
2023/03/09 04:35:42;;;;;;;2.40;0.85;;;;;;;;;;5054559;28;20075;-59
2023/03/09 04:38:08;;;;;;;2.80;0.65;;;;;;;;;;5054955;28;20087;-57
2023/03/09 04:40:34;;;;;;;0.47;0.30;;;;;;;;;;5054751;28;20037;-59
2023/03/09 04:42:59;;;;;;;1.73;0.57;;;;;;;;;;5054421;28;20112;-57
2023/03/09 04:45:25;;;;;;;2.28;0.77;;;;;;;;;;5055001;28;20410;-53
2023/03/09 04:47:51;;;;;;;3.80;0.95;;;;;;;;;;5054284;28;20032;-58
2023/03/09 04:50:17;;;;;;;2.25;0.52;;;;;;;;;;5053925;28;20044;-57
2023/03/09 04:52:43;;;;;;;3.22;1.30;;;;;;;;;;5054190;28;20116;-58
2023/03/09 04:55:09;;;;;;;5.90;1.23;;;;;;;;;;5053387;28;20087;-58
2023/03/09 04:57:35;;;;;;;7.65;1.40;;;;;;;;;;5054655;28;20047;-56
2023/03/09 05:00:04;;;;;;;3.95;0.88;;;;;;;;;;5054015;28;20063;-59
2023/03/09 05:02:30;;;;;;;5.10;1.58;;;;;;;;;;5054457;28;20074;-59
2023/03/09 05:04:56;;;;;;;3.88;1.25;;;;;;;;;;5054730;28;20479;-57
2023/03/09 05:07:22;;;;;;;1.90;0.77;;;;;;;;;;5054057;28;20450;-58
2023/03/09 05:09:48;;;;;;;8.38;1.15;;;;;;;;;;5053940;28;20032;-57
2023/03/09 05:12:14;;;;;;;1.55;0.63;;;;;;;;;;5052521;28;20095;-57
2023/03/09 05:14:40;;;;;;;2.75;1.13;;;;;;;;;;5053910;28;20179;-57
2023/03/09 05:17:06;;;;;;;5.40;0.88;;;;;;;;;;5054701;28;20135;-58
2023/03/09 05:19:35;;;;;;;2.05;0.85;;;;;;;;;;5053870;28;20466;-57
2023/03/09 05:22:02;;;;;;;3.80;2.08;;;;;;;;;;5053743;28;20031;-57
2023/03/09 05:24:29;;;;;;;4.70;1.63;;;;;;;;;;5054124;28;20047;-58
2023/03/09 05:26:54;;;;;;;7.82;1.85;;;;;;;;;;5053764;28;20021;-58
2023/03/09 05:29:21;;;;;;;3.08;0.93;;;;;;;;;;5053672;28;20048;-58
2023/03/09 05:31:47;;;;;;;5.95;1.08;;;;;;;;;;5053669;28;20033;-58
2023/03/09 05:34:13;;;;;;;2.88;1.95;;;;;;;;;;5054225;28;20029;-57
2023/03/09 05:36:39;;;;;;;5.00;1.08;;;;;;;;;;5057812;28;20159;-58
2023/03/09 05:39:05;;;;;;;1.52;0.75;;;;;;;;;;5060336;28;20025;-58
2023/03/09 05:41:31;;;;;;;8.30;1.25;;;;;;;;;;5060518;28;20025;-56
2023/03/09 05:43:59;;;;;;;14.10;2.45;;;;;;;;;;5060278;28;20147;-58
2023/03/09 05:46:25;;;;;;;3.97;1.58;;;;;;;;;;5060135;28;20025;-58
2023/03/09 05:48:51;;;;;;;2.08;0.60;;;;;;;;;;5060368;28;20036;-58
2023/03/09 05:51:17;;;;;;;3.63;0.88;;;;;;;;;;5060638;28;20040;-57
2023/03/09 05:53:43;;;;;;;2.67;0.73;;;;;;;;;;5060151;28;20048;-59
2023/03/09 05:56:09;;;;;;;1.90;0.88;;;;;;;;;;5060696;28;20029;-58
2023/03/09 05:58:35;;;;;;;2.65;0.63;;;;;;;;;;5060071;28;20021;-58
2023/03/09 06:01:01;;;;;;;2.85;1.30;;;;;;;;;;5060084;28;20052;-58
2023/03/09 06:03:27;;;;;;;3.78;0.80;;;;;;;;;;5059790;28;20025;-58
2023/03/09 06:06:05;;;;;;;6.55;1.65;;;;;;;;;;5060560;28;20067;-58
2023/03/09 06:08:31;;;;;;;3.92;0.85;;;;;;;;;;5059200;28;20029;-59
2023/03/09 06:10:58;;;;;;;3.47;0.73;;;;;;;;;;5060453;28;20372;-59
2023/03/09 06:13:24;;;;;;;5.55;0.93;;;;;;;;;;5059532;28;20044;-58
2023/03/09 06:15:50;;;;;;;6.75;0.88;;;;;;;;;;5059845;28;20083;-60
2023/03/09 06:18:17;;;;;;;2.28;0.77;;;;;;;;;;5060113;28;20079;-56
2023/03/09 06:20:44;;;;;;;1.58;0.55;;;;;;;;;;5059787;28;20130;-56
2023/03/09 06:23:09;;;;;;;2.50;1.60;;;;;;;;;;5059843;28;20073;-57
2023/03/09 06:25:36;;;;;;;3.30;1.20;;;;;;;;;;5059709;28;20036;-57
2023/03/09 06:28:03;;;;;;;5.57;1.42;;;;;;;;;;5060494;28;20166;-56
2023/03/09 06:30:29;;;;;;;4.38;1.27;;;;;;;;;;5059817;28;20112;-56
2023/03/09 06:32:56;;;;;;;2.75;1.33;;;;;;;;;;5059964;28;20375;-56
2023/03/09 06:35:22;;;;;;;6.38;1.17;;;;;;;;;;5059662;28;20032;-57
2023/03/09 06:37:48;;;;;;;2.42;0.77;;;;;;;;;;5059449;28;20422;-56
2023/03/09 06:40:14;;;;;;;1.33;0.47;;;;;;;;;;5059892;28;20036;-57
2023/03/09 06:42:40;;;;;;;4.07;1.10;;;;;;;;;;5059691;28;20056;-56
2023/03/09 06:45:06;;;;;;;0.98;0.50;;;;;;;;;;5060004;28;20031;-57
2023/03/09 06:47:32;;;;;;;2.40;1.05;;;;;;;;;;5056939;28;20091;-57
2023/03/09 06:49:59;;;;;;;3.58;0.70;;;;;;;;;;5056587;28;20063;-56
2023/03/09 06:52:25;;;;;;;3.20;0.90;;;;;;;;;;5056327;28;20413;-57
2023/03/09 06:54:51;;;;;;;4.22;0.88;;;;;;;;;;5056809;28;20033;-56
2023/03/09 06:57:17;;;;;;;4.50;1.35;;;;;;;;;;5056365;28;20033;-57
2023/03/09 06:59:43;;;;;;;2.45;0.90;;;;;;;;;;5056416;28;20025;-56
2023/03/09 07:02:13;;;;;;;4.03;1.17;;;;;;;;;;5056754;28;20029;-57
2023/03/09 07:04:40;;;;;;;3.30;0.98;;;;;;;;;;5055981;28;20104;-57
2023/03/09 07:07:07;;;;;;;2.33;0.80;;;;;;;;;;5056385;28;20032;-57
2023/03/09 07:09:33;;;;;;;5.50;2.60;;;;;;;;;;5055988;28;20378;-57
2023/03/09 07:12:00;;;;;;;2.90;0.95;;;;;;;;;;5056605;28;20021;-56
2023/03/09 07:14:26;;;;;;;1.90;0.40;;;;;;;;;;5055893;28;20075;-57
2023/03/09 07:16:53;;;;;;;3.17;0.68;;;;;;;;;;5056308;28;20028;-56
2023/03/09 07:19:19;;;;;;;5.13;1.23;;;;;;;;;;5055984;28;20104;-57
2023/03/09 07:21:45;;;;;;;1.98;0.68;;;;;;;;;;5056484;28;20053;-56
2023/03/09 07:24:11;;;;;;;3.47;0.68;;;;;;;;;;5056137;28;20037;-57
2023/03/09 07:26:37;;;;;;;2.17;1.05;;;;;;;;;;5056532;28;20049;-55
2023/03/09 07:29:03;;;;;;;1.30;0.65;;;;;;;;;;5056032;28;20025;-59
2023/03/09 07:31:31;;;;;;;6.75;0.88;;;;;;;;;;5055591;28;20100;-58
2023/03/09 07:33:58;;;;;;;1.80;0.47;;;;;;;;;;5055995;28;20545;-58
2023/03/09 07:36:24;;;;;;;1.48;0.73;;;;;;;;;;5055723;28;20490;-57
2023/03/09 07:38:50;;;;;;;3.47;0.90;;;;;;;;;;5056184;28;20036;-58
2023/03/09 07:41:16;;;;;;;2.90;0.73;;;;;;;;;;5056005;28;20029;-58
2023/03/09 07:43:45;;;;;;;2.25;0.47;;;;;;;;;;5055485;28;20025;-57
2023/03/09 07:46:12;;;;;;;5.25;0.63;;;;;;;;;;5055433;28;20462;-58
2023/03/09 07:48:38;;;;;;;2.90;1.00;;;;;;;;;;5055330;28;20463;-57
2023/03/09 07:51:04;;;;;;;5.30;0.77;;;;;;;;;;5055073;28;20474;-56
2023/03/09 07:53:30;;;;;;;2.92;0.98;;;;;;;;;;5055540;28;20140;-58
2023/03/09 07:55:57;;;;;;;5.35;0.70;;;;;;;;;;5055249;28;20025;-57
2023/03/09 07:58:23;;;;;;;0.95;0.50;;;;;;;;;;5054908;28;20352;-58
2023/03/09 08:00:49;;;;;;;1.88;0.52;;;;;;;;;;5055123;28;20489;-58
2023/03/09 08:03:15;;;;;;;2.03;0.43;;;;;;;;;;5055300;28;20021;-57
2023/03/09 08:05:42;;;;;;;0.57;0.20;;;;;;;;;;5055222;28;20024;-58
2023/03/09 08:08:08;;;;;;;5.85;1.63;;;;;;;;;;5055534;28;20025;-58
2023/03/09 08:10:34;;;;;;;3.75;0.60;;;;;;;;;;5054890;28;20430;-58
2023/03/09 08:13:00;;;;;;;4.55;1.33;;;;;;;;;;5054973;28;20104;-56
2023/03/09 08:15:26;;;;;;;3.17;1.55;;;;;;;;;;5054911;28;20021;-58
2023/03/09 08:17:53;;;;;;;6.70;1.13;;;;;;;;;;5054629;28;20028;-58
2023/03/09 08:20:19;;;;;;;0.75;0.30;;;;;;;;;;5055000;28;20505;-56
2023/03/09 08:22:45;;;;;;;2.05;0.75;;;;;;;;;;5054802;28;20028;-58
2023/03/09 08:25:11;;;;;;;4.28;1.33;;;;;;;;;;5055001;28;20021;-58
2023/03/09 08:27:41;;;;;;;2.63;0.55;;;;;;;;;;5055194;28;20029;-57
2023/03/09 08:30:08;;;;;;;1.35;0.43;;;;;;;;;;5055114;28;20040;-58
2023/03/09 08:32:34;;;;;;;1.05;0.43;;;;;;;;;;5054541;28;20032;-57
2023/03/09 08:35:00;;;;;;;3.60;0.25;;;;;;;;;;5054896;28;20111;-58
2023/03/09 08:37:26;;;;;;;1.98;0.52;;;;;;;;;;5054849;28;20467;-57
2023/03/09 08:39:52;;;;;;;0.75;0.32;;;;;;;;;;5054706;28;20059;-59
2023/03/09 08:42:18;;;;;;;2.45;0.47;;;;;;;;;;5053172;28;20029;-58
2023/03/09 08:44:44;;;;;;;3.67;0.70;;;;;;;;;;5054684;28;20040;-59
2023/03/09 08:47:10;;;;;;;1.17;0.52;;;;;;;;;;5054398;28;20037;-57
2023/03/09 08:49:40;;;;;;;2.28;0.35;;;;;;;;;;5053973;28;20033;-59
2023/03/09 08:52:06;;;;;;;5.03;0.55;;;;;;;;;;5054219;28;20029;-59
2023/03/09 08:54:32;;;;;;;0.93;0.22;;;;;;;;;;5054551;28;20036;-58
2023/03/09 08:56:58;;;;;;;2.72;0.90;;;;;;;;;;5054186;28;20033;-59
2023/03/09 08:59:24;;;;;;;2.10;1.33;;;;;;;;;;5054127;28;20440;-58
2023/03/09 09:01:50;;;;;;;2.72;0.65;;;;;;;;;;5054128;28;20471;-59
2023/03/09 09:04:16;;;;;;;1.23;0.40;;;;;;;;;;5053866;28;20395;-58
2023/03/09 09:06:42;;;;;;;1.05;0.30;;;;;;;;;;5054589;28;20123;-57
2023/03/09 09:09:09;;;;;;;1.02;0.30;;;;;;;;;;5054149;28;20025;-56
2023/03/09 09:11:35;;;;;;;0.68;0.28;;;;;;;;;;5053535;28;20032;-58
2023/03/09 09:14:01;;;;;;;7.88;1.05;;;;;;;;;;5053964;28;20049;-58
2023/03/09 09:16:29;;;;;;;2.17;0.70;;;;;;;;;;5054181;28;20509;-56
2023/03/09 09:18:55;;;;;;;3.40;0.43;;;;;;;;;;5054347;28;20033;-57
2023/03/09 09:21:21;;;;;;;1.85;0.50;;;;;;;;;;5054335;28;20051;-57
2023/03/09 09:23:49;;;;;;;2.58;0.68;;;;;;;;;;5054261;28;20028;-57
2023/03/09 09:26:15;;;;;;;1.63;0.60;;;;;;;;;;5054064;28;20025;-58
2023/03/09 09:28:41;;;;;;;2.03;0.65;;;;;;;;;;5053694;28;20106;-54
2023/03/09 09:31:09;;;;;;;2.00;0.73;;;;;;;;;;5053637;28;20115;-57
2023/03/09 09:33:36;;;;;;;0.55;0.30;;;;;;;;;;5054125;28;20025;-57
2023/03/09 09:36:03;;;;;;;0.45;0.20;;;;;;;;;;5053685;28;20025;-57
2023/03/09 09:38:30;;;;;;;1.98;0.40;;;;;;;;;;5053206;28;20055;-58
2023/03/09 09:40:57;;;;;;;0.55;0.40;;;;;;;;;;5053928;28;20033;-57
2023/03/09 09:43:23;;;;;;;1.55;0.25;;;;;;;;;;5053772;28;20117;-59
2023/03/09 09:45:52;;;;;;;2.80;0.40;;;;;;;;;;5053648;28;20029;-58
2023/03/09 09:48:18;;;;;;;5.38;0.75;;;;;;;;;;5053011;28;20033;-59
2023/03/09 09:50:55;;;;;;;0.60;0.20;;;;;;;;;;5053465;28;20073;-59
2023/03/09 09:53:39;;;;;;;2.83;1.38;;;;;;;;;;5053529;28;20029;-58
2023/03/09 09:56:09;;;;;;;1.00;0.50;;;;;;;;;;5053750;28;20033;-56
2023/03/09 09:58:47;;;;;;;2.75;0.60;;;;;;;;;;5053446;28;20021;-58
2023/03/09 10:01:20;;;;;;;1.90;0.60;;;;;;;;;;5053417;28;20029;-59
2023/03/09 10:03:49;;;;;;;2.17;0.50;;;;;;;;;;5053797;28;20021;-57
2023/03/09 10:06:22;;;;;;;0.82;0.30;;;;;;;;;;5053384;28;20017;-58
2023/03/09 10:08:57;;;;;;;5.85;1.38;;;;;;;;;;5053631;28;20029;-59
2023/03/09 10:11:31;;;;;;;4.70;0.55;;;;;;;;;;5053207;28;20037;-58
2023/03/09 10:14:00;;;;;;;2.13;0.98;;;;;;;;;;5053667;28;20055;-58
2023/03/09 10:16:27;;;;;;;2.17;0.52;;;;;;;;;;5054108;28;20021;-59
2023/03/09 10:18:56;;;;;;;1.70;0.20;;;;;;;;;;5053253;28;20056;-59
2023/03/09 10:21:37;;;;;;;0.57;0.15;;;;;;;;;;5053238;28;20116;-58
2023/03/09 10:24:03;;;;;;;;;;;;;;;;;;5057983;28;20415;-59
2023/03/09 10:26:51;;;;;;;0.65;0.20;;;;;;;;;;5057105;28;19944;-59
2023/03/09 10:29:24;;;;;;;1.77;0.30;;;;;;;;;;5057351;28;20029;-58
2023/03/09 10:31:56;;;;;;;0.68;0.30;;;;;;;;;;5057209;28;20458;-59
2023/03/09 10:34:27;;;;;;;2.17;0.60;;;;;;;;;;5056795;28;20506;-59
2023/03/09 10:36:58;;;;;;;1.35;0.45;;;;;;;;;;5057569;28;20033;-58
2023/03/09 10:39:24;;;;;;;;;;;;;;;;;;5057522;28;20475;-57
2023/03/09 10:41:51;;;;;;;1.60;0.52;;;;;;;;;;5056929;28;20374;-59
2023/03/09 10:44:19;;;;;;;1.08;0.28;;;;;;;;;;5057376;28;20029;-58
2023/03/09 10:46:58;;;;;;;1.20;0.40;;;;;;;;;;5057407;28;20029;-56
2023/03/09 10:49:25;;;;;;;0.57;0.22;;;;;;;;;;5056430;28;20479;-59
2023/03/09 10:51:55;;;;;;;2.25;0.30;;;;;;;;;;5056521;28;20036;-58
2023/03/09 10:54:27;;;;;;;0.70;0.32;;;;;;;;;;5056518;28;20037;-56
2023/03/09 10:56:53;;;;;;;2.85;0.85;;;;;;;;;;5056898;28;20075;-56
2023/03/09 10:59:21;;;;;;;3.03;1.25;;;;;;;;;;5056175;28;20048;-58
2023/03/09 11:01:48;;;;;;;5.38;0.52;;;;;;;;;;5056010;28;20028;-58
2023/03/09 11:04:23;;;;;;;3.97;1.13;;;;;;;;;;5056568;28;20075;-59
2023/03/09 11:06:59;;;;;;;1.55;0.52;;;;;;;;;;5056761;28;20431;-56
2023/03/09 11:09:43;;;;;;;1.45;0.68;;;;;;;;;;5056453;28;20083;-59
2023/03/09 11:12:15;;;;;;;4.13;1.17;;;;;;;;;;5055793;28;20029;-58
2023/03/09 11:14:46;;;;;;;0.88;0.30;;;;;;;;;;5056758;28;20037;-56
2023/03/09 11:17:31;;;;;;;3.38;1.02;;;;;;;;;;5055539;28;20021;-57
2023/03/09 11:20:12;;;;;;;1.85;0.63;;;;;;;;;;5056599;28;20055;-56
2023/03/09 11:22:45;;;;;;;3.38;1.15;;;;;;;;;;5055932;28;20017;-58
2023/03/09 11:25:17;;;;;;;2.33;1.13;;;;;;;;;;5056323;28;20119;-57
2023/03/09 11:27:46;;;;;;;0.68;0.17;;;;;;;;;;5055862;28;20028;-54
2023/03/09 11:30:12;;;;;;;1.65;0.50;;;;;;;;;;5055664;28;20083;-59
2023/03/09 11:32:38;;;;;;;3.30;0.93;;;;;;;;;;5055746;28;20036;-58
2023/03/09 11:35:04;;;;;;;3.42;1.02;;;;;;;;;;5055297;28;20025;-59
2023/03/09 11:37:33;;;;;;;1.35;0.75;;;;;;;;;;5055668;28;20490;-58
2023/03/09 11:40:02;;;;;;;4.13;0.52;;;;;;;;;;5055540;28;20425;-58
2023/03/09 11:42:36;;;;;;;1.80;0.43;;;;;;;;;;5055550;28;20052;-58
2023/03/09 11:45:03;;;;;;;1.80;0.70;;;;;;;;;;5055868;28;20463;-55
2023/03/09 11:47:32;;;;;;;2.00;0.70;;;;;;;;;;5055460;28;20025;-57
2023/03/09 11:50:02;;;;;;;7.50;1.33;;;;;;;;;;5055886;28;20045;-58
2023/03/09 11:52:30;;;;;;;3.60;0.63;;;;;;;;;;5056023;28;20103;-58
2023/03/09 11:54:58;;;;;;;2.15;0.90;;;;;;;;;;5055159;28;20593;-56
2023/03/09 11:57:26;;;;;;;1.38;0.70;;;;;;;;;;5055490;28;20496;-58
2023/03/09 11:59:55;;;;;;;3.00;1.08;;;;;;;;;;5055756;28;20036;-57
2023/03/09 12:02:35;;;;;;;1.90;0.50;;;;;;;;;;5055179;28;20025;-57
2023/03/09 12:05:02;;;;;;;2.72;0.73;;;;;;;;;;5055422;28;20033;-58
2023/03/09 12:07:37;;;;;;;1.58;0.55;;;;;;;;;;5055384;28;20025;-58
2023/03/09 12:10:18;;;;;;;3.17;0.50;;;;;;;;;;5055534;28;20037;-58
2023/03/09 12:12:51;;;;;;;1.60;0.50;;;;;;;;;;5054787;28;20045;-57
2023/03/09 12:15:23;;;;;;;3.55;0.60;;;;;;;;;;5054730;28;20029;-58
2023/03/09 12:17:54;;;;;;;1.70;0.60;;;;;;;;;;5054786;28;20053;-58
2023/03/09 12:20:31;;;;;;;1.02;0.40;;;;;;;;;;5055003;28;20035;-58
2023/03/09 12:22:57;;;;;;;1.88;0.57;;;;;;;;;;5054770;28;20482;-56
2023/03/09 12:25:25;;;;;;;1.13;0.60;;;;;;;;;;5055229;28;20017;-58
2023/03/09 12:27:59;;;;;;;3.38;0.52;;;;;;;;;;5054607;28;20024;-58
2023/03/09 12:30:42;;;;;;;2.25;0.90;;;;;;;;;;5055432;28;20082;-56
2023/03/09 12:33:10;;;;;;;1.85;0.50;;;;;;;;;;5054673;28;20323;-58
2023/03/09 12:35:56;;;;;;;2.97;0.90;;;;;;;;;;5055383;28;20064;-58
2023/03/09 12:38:23;;;;;;;1.60;1.30;;;;;;;;;;5054015;28;20025;-59
2023/03/09 12:40:50;;;;;;;1.95;1.02;;;;;;;;;;5054934;28;20107;-58
2023/03/09 12:43:16;;;;;;;8.07;1.02;;;;;;;;;;5054109;28;20463;-56
2023/03/09 12:45:43;;;;;;;5.50;1.02;;;;;;;;;;5053843;28;20031;-57
2023/03/09 12:48:12;;;;;;;2.03;0.57;;;;;;;;;;5054488;28;20028;-56
2023/03/09 12:50:48;;;;;;;1.17;0.63;;;;;;;;;;5054095;28;20083;-58
2023/03/09 12:53:16;;;;;;;3.88;0.70;;;;;;;;;;5054436;28;20101;-58
2023/03/09 12:55:50;;;;;;;2.00;0.60;;;;;;;;;;5054755;28;20056;-58
2023/03/09 12:58:22;;;;;;;2.90;0.88;;;;;;;;;;5054610;28;20104;-57
2023/03/09 13:01:05;;;;;;;3.45;0.80;;;;;;;;;;5054412;28;20037;-58
2023/03/09 13:03:41;;;;;;;2.95;0.80;;;;;;;;;;5053971;28;20078;-55
2023/03/09 13:06:20;;;;;;;1.92;0.55;;;;;;;;;;5054192;28;20068;-59
2023/03/09 13:08:50;;;;;;;1.35;0.60;;;;;;;;;;5054184;28;20051;-57
2023/03/09 13:11:25;;;;;;;2.60;0.98;;;;;;;;;;5054183;28;20110;-58
2023/03/09 13:13:55;;;;;;;2.08;0.60;;;;;;;;;;5054188;28;20387;-58
2023/03/09 13:16:39;;;;;;;0.88;0.50;;;;;;;;;;5054237;28;20037;-59
2023/03/09 13:19:32;;;;;;;3.30;0.32;;;;;;;;;;5053758;28;20055;-57
2023/03/09 13:22:01;;;;;;;2.03;0.60;;;;;;;;;;5052570;28;20025;-54
2023/03/09 13:24:38;;;;;;;1.52;0.45;;;;;;;;;;5054105;28;20017;-57
2023/03/09 13:27:23;;;;;;;1.58;0.60;;;;;;;;;;5053680;28;20374;-55
2023/03/09 13:30:07;;;;;;;0.95;0.50;;;;;;;;;;5054725;28;20127;-57
2023/03/09 13:32:39;;;;;;;0.98;0.50;;;;;;;;;;5053383;28;20387;-57
2023/03/09 13:35:18;;;;;;;2.75;0.93;;;;;;;;;;5053175;28;20387;-57
2023/03/09 13:37:45;;;;;;;1.83;0.38;;;;;;;;;;5053956;28;20134;-57
2023/03/09 13:40:30;;;;;;;2.75;0.80;;;;;;;;;;5053560;28;20379;-56
2023/03/09 13:42:57;;;;;;;3.53;0.63;;;;;;;;;;5053618;28;20032;-57
2023/03/09 13:45:27;;;;;;;2.50;0.75;;;;;;;;;;5052067;28;20029;-57
2023/03/09 13:47:54;;;;;;;4.22;1.33;;;;;;;;;;5053416;28;20032;-58
2023/03/09 13:50:21;;;;;;;2.72;0.57;;;;;;;;;;5053989;28;20048;-59
2023/03/09 13:53:01;;;;;;;3.25;1.05;;;;;;;;;;5054062;28;20215;-57
2023/03/09 13:55:27;;;;;;;1.63;0.50;;;;;;;;;;5053856;28;20029;-58
2023/03/09 13:57:54;;;;;;;1.55;0.60;;;;;;;;;;5055922;28;20032;-57
2023/03/09 14:00:26;;;;;;;2.17;0.70;;;;;;;;;;5057463;28;20463;-56
2023/03/09 14:02:55;;;;;;;2.30;0.50;;;;;;;;;;5057653;28;20025;-57
2023/03/09 14:05:23;;;;;;;4.68;0.70;;;;;;;;;;5057187;28;20527;-57
2023/03/09 14:07:52;;;;;;;2.38;1.23;;;;;;;;;;5057975;28;20028;-57
2023/03/09 14:10:21;;;;;;;1.67;0.47;;;;;;;;;;5057633;28;20028;-57
2023/03/09 14:12:50;;;;;;;2.53;0.60;;;;;;;;;;5057295;28;20135;-57
2023/03/09 14:15:19;;;;;;;3.60;0.90;;;;;;;;;;5057660;28;20075;-57
2023/03/09 14:17:45;;;;;;;0.90;0.32;;;;;;;;;;5057177;28;20032;-58
2023/03/09 14:20:20;;;;;;;2.05;0.93;;;;;;;;;;5057153;28;20104;-57
2023/03/09 14:22:45;;;;;;;1.85;0.52;;;;;;;;;;5057269;28;20516;-58
2023/03/09 14:25:41;;;;;;;1.55;0.60;;;;;;;;;;5056841;28;20032;-57
2023/03/09 14:28:24;;;;;;;2.17;0.73;;;;;;;;;;5052167;28;20454;-58
2023/03/09 14:30:50;;;;;;;3.20;0.68;;;;;;;;;;5057577;28;20084;-57
2023/03/09 14:33:23;;;;;;;3.30;0.98;;;;;;;;;;5056722;28;20028;-58
2023/03/09 14:35:50;;;;;;;1.83;1.05;;;;;;;;;;5056839;28;20063;-57
2023/03/09 14:38:16;;;;;;;1.33;0.50;;;;;;;;;;5056817;28;20447;-58
2023/03/09 14:40:43;;;;;;;2.53;1.20;;;;;;;;;;5056707;28;20056;-57
2023/03/09 14:43:28;;;;;;;0.65;0.40;;;;;;;;;;5056764;28;20074;-56
2023/03/09 14:46:07;;;;;;;3.05;0.77;;;;;;;;;;5056909;28;20025;-58
2023/03/09 14:48:33;;;;;;;1.42;0.55;;;;;;;;;;5057229;28;20104;-55
2023/03/09 14:50:59;;;;;;;1.83;0.50;;;;;;;;;;5056690;28;20095;-57